createdAt,value
2019-03-18T00:00:30.119Z,0.40
2019-03-18T00:03:00.100Z,0.40
2019-03-18T00:05:30.101Z,0.40
2019-03-18T00:08:00.014Z,0.30
2019-03-18T00:10:29.930Z,0.50
2019-03-18T00:13:00.129Z,0.40
2019-03-18T00:15:29.384Z,0.57
2019-03-18T00:17:58.547Z,0.60
2019-03-18T00:20:28.377Z,0.60
2019-03-18T00:22:57.918Z,0.53
2019-03-18T00:25:27.760Z,0.60
2019-03-18T00:27:57.695Z,0.57
2019-03-18T00:30:27.595Z,0.50
2019-03-18T00:32:57.650Z,0.40
2019-03-18T00:35:27.614Z,0.40
2019-03-18T00:37:56.879Z,0.33
2019-03-18T00:40:26.732Z,0.50
2019-03-18T00:42:57.183Z,0.60
2019-03-18T00:45:27.125Z,0.50
2019-03-18T00:47:56.446Z,0.53
2019-03-18T00:50:25.685Z,0.50
2019-03-18T00:52:54.875Z,0.40
2019-03-18T00:55:24.673Z,0.60
2019-03-18T00:57:54.062Z,0.50
2019-03-18T01:00:23.889Z,0.30
2019-03-18T01:02:53.835Z,0.40
2019-03-18T01:05:24.088Z,1.00
2019-03-18T01:07:53.464Z,0.30
2019-03-18T01:10:22.764Z,0.50
2019-03-18T01:12:51.973Z,1.00
2019-03-18T01:15:27.792Z,0.50
2019-03-18T01:17:52.764Z,0.50
2019-03-18T01:20:22.068Z,0.50
2019-03-18T01:22:51.818Z,0.60
2019-03-18T01:25:21.712Z,1.53
2019-03-18T01:27:51.014Z,0.53
2019-03-18T01:30:20.810Z,0.50
2019-03-18T01:32:50.134Z,0.77
2019-03-18T01:35:20.013Z,0.50
2019-03-18T01:37:49.975Z,0.50
2019-03-18T01:40:19.304Z,0.50
2019-03-18T01:42:49.067Z,0.50
2019-03-18T01:45:19.009Z,0.40
2019-03-18T01:47:48.349Z,0.57
2019-03-18T01:50:17.921Z,0.60
2019-03-18T01:52:47.151Z,0.53
2019-03-18T01:55:17.003Z,0.50
2019-03-18T01:57:46.308Z,0.57
2019-03-18T02:00:16.392Z,0.40
2019-03-18T02:02:46.312Z,0.60
2019-03-18T02:05:16.272Z,0.90
2019-03-18T02:07:46.200Z,1.13
2019-03-18T02:10:16.228Z,0.50
2019-03-18T02:12:46.181Z,0.63
2019-03-18T02:15:16.444Z,0.60
2019-03-18T02:17:46.385Z,0.47
2019-03-18T02:20:19.216Z,0.97
2019-03-18T02:22:46.926Z,0.90
2019-03-18T02:25:16.841Z,0.50
2019-03-18T02:27:46.820Z,0.67
2019-03-18T02:30:16.613Z,0.70
2019-03-18T02:32:45.855Z,0.63
2019-03-18T02:35:15.128Z,0.70
2019-03-18T02:37:44.953Z,0.60
2019-03-18T02:40:15.760Z,0.57
2019-03-18T02:42:45.405Z,0.80
2019-03-18T02:45:15.294Z,0.80
2019-03-18T02:47:44.642Z,0.70
2019-03-18T02:50:13.864Z,0.90
2019-03-18T02:52:43.085Z,0.93
2019-03-18T02:55:12.939Z,0.80
2019-03-18T02:57:42.861Z,0.70
2019-03-18T03:00:12.913Z,0.90
2019-03-18T03:02:42.850Z,0.70
2019-03-18T03:05:13.270Z,0.80
2019-03-18T03:07:43.190Z,0.70
2019-03-18T03:10:13.542Z,0.90
2019-03-18T03:12:42.861Z,0.63
2019-03-18T03:15:12.414Z,0.90
2019-03-18T03:17:42.238Z,0.77
2019-03-18T03:20:12.861Z,0.90
2019-03-18T03:22:42.704Z,0.60
2019-03-18T03:25:12.664Z,0.80
2019-03-18T03:27:41.985Z,0.83
2019-03-18T03:30:12.017Z,1.00
2019-03-18T03:32:42.240Z,0.70
2019-03-18T03:35:11.728Z,0.90
2019-03-18T03:37:40.949Z,0.90
2019-03-18T03:40:10.815Z,0.73
2019-03-18T03:42:40.133Z,1.03
2019-03-18T03:45:09.673Z,0.90
2019-03-18T03:47:39.496Z,0.90
2019-03-18T03:50:08.745Z,1.00
2019-03-18T03:52:38.575Z,1.17
2019-03-18T03:55:07.926Z,0.97
2019-03-18T03:57:38.034Z,0.77
2019-03-18T04:00:07.993Z,1.03
2019-03-18T04:02:37.762Z,0.87
2019-03-18T04:05:08.156Z,1.20
2019-03-18T04:07:38.183Z,0.80
2019-03-18T04:10:09.605Z,0.90
2019-03-18T04:12:39.875Z,0.80
2019-03-18T04:15:09.169Z,0.90
2019-03-18T04:17:38.988Z,0.93
2019-03-18T04:20:10.826Z,0.60
2019-03-18T04:22:41.173Z,0.90
2019-03-18T04:25:10.519Z,0.90
2019-03-18T04:27:39.843Z,0.90
2019-03-18T04:30:09.821Z,1.20
2019-03-18T04:32:39.187Z,0.90
2019-03-18T04:35:09.035Z,0.80
2019-03-18T04:37:38.389Z,1.00
2019-03-18T04:40:08.305Z,0.80
2019-03-18T04:42:37.936Z,0.80
2019-03-18T04:45:08.939Z,1.07
2019-03-18T04:47:38.371Z,1.03
2019-03-18T04:50:08.435Z,1.40
2019-03-18T04:52:38.381Z,0.97
2019-03-18T04:55:08.446Z,0.90
2019-03-18T04:57:37.801Z,0.80
2019-03-18T05:00:07.148Z,0.90
2019-03-18T05:02:37.013Z,0.60
2019-03-18T05:05:07.036Z,1.00
2019-03-18T05:07:36.970Z,0.83
2019-03-18T05:10:06.292Z,0.80
2019-03-18T05:12:37.240Z,1.10
2019-03-18T05:15:07.528Z,0.80
2019-03-18T05:17:37.464Z,1.00
2019-03-18T05:20:07.541Z,1.10
2019-03-18T05:22:37.477Z,0.93
2019-03-18T05:25:07.818Z,1.27
2019-03-18T05:27:37.778Z,1.07
2019-03-18T05:30:07.113Z,0.97
2019-03-18T05:32:36.635Z,0.90
2019-03-18T05:35:09.129Z,0.83
2019-03-18T05:37:37.706Z,1.07
2019-03-18T05:40:06.957Z,1.13
2019-03-18T05:42:37.307Z,0.80
2019-03-18T05:45:07.580Z,0.97
2019-03-18T05:47:39.770Z,0.93
2019-03-18T05:50:11.059Z,0.93
2019-03-18T05:52:41.076Z,1.10
2019-03-18T05:55:10.398Z,0.90
2019-03-18T05:57:40.370Z,1.00
2019-03-18T06:00:09.740Z,1.10
2019-03-18T06:02:38.986Z,0.93
2019-03-18T06:05:08.332Z,1.00
2019-03-18T06:07:37.631Z,1.07
2019-03-18T06:10:07.601Z,1.07
2019-03-18T06:12:36.796Z,0.97
2019-03-18T06:15:06.825Z,1.00
2019-03-18T06:17:36.091Z,0.80
2019-03-18T06:20:06.589Z,1.00
2019-03-18T06:22:36.853Z,1.20
2019-03-18T06:25:06.463Z,0.93
2019-03-18T06:27:36.685Z,1.00
2019-03-18T06:30:06.318Z,0.90
2019-03-18T06:32:35.593Z,1.47
2019-03-18T06:35:06.071Z,1.50
2019-03-18T06:37:35.406Z,1.73
2019-03-18T06:40:05.852Z,1.43
2019-03-18T06:42:35.125Z,1.60
2019-03-18T06:45:04.700Z,1.23
2019-03-18T06:47:33.949Z,1.60
2019-03-18T06:50:03.145Z,2.80
2019-03-18T06:52:32.375Z,2.03
2019-03-18T06:55:01.787Z,1.60
2019-03-18T06:57:31.565Z,1.40
2019-03-18T07:00:01.390Z,1.53
2019-03-18T07:02:30.681Z,1.20
2019-03-18T07:05:00.831Z,1.33
2019-03-18T07:07:30.114Z,1.37
2019-03-18T07:09:59.340Z,1.13
2019-03-18T07:12:28.552Z,1.10
2019-03-18T07:14:58.364Z,1.20
2019-03-18T07:17:27.668Z,1.10
2019-03-18T07:19:57.508Z,0.80
2019-03-18T07:22:27.429Z,1.00
2019-03-18T07:24:56.677Z,0.97
2019-03-18T07:27:25.852Z,1.03
2019-03-18T07:29:55.061Z,1.10
2019-03-18T07:32:25.033Z,1.20
2019-03-18T07:34:54.341Z,1.60
2019-03-18T07:37:23.705Z,1.40
2019-03-18T07:39:53.532Z,1.37
2019-03-18T07:42:23.413Z,1.23
2019-03-18T07:44:53.285Z,1.20
2019-03-18T07:47:23.362Z,0.93
2019-03-18T07:49:52.671Z,1.23
2019-03-18T07:52:22.559Z,1.03
2019-03-18T07:54:51.800Z,1.17
2019-03-18T07:57:21.615Z,1.53
2019-03-18T07:59:50.856Z,1.20
2019-03-18T08:02:20.748Z,2.00
2019-03-18T08:04:50.057Z,1.53
2019-03-18T08:07:19.914Z,3.13
2019-03-18T08:09:49.215Z,3.13
2019-03-18T08:12:18.383Z,2.37
2019-03-18T08:14:47.633Z,1.17
2019-03-18T08:17:17.473Z,1.30
2019-03-18T08:19:47.414Z,1.03
2019-03-18T08:22:16.669Z,1.30
2019-03-18T08:24:46.705Z,1.20
2019-03-18T08:27:16.055Z,1.07
2019-03-18T08:29:50.720Z,1.13
2019-03-18T08:32:19.984Z,1.30
2019-03-18T08:34:49.838Z,1.00
2019-03-18T08:37:19.115Z,1.30
2019-03-18T08:39:49.063Z,1.20
2019-03-18T08:42:19.091Z,0.80
2019-03-18T08:44:48.428Z,1.00
2019-03-18T08:47:17.652Z,1.00
2019-03-18T08:49:47.454Z,1.30
2019-03-18T08:52:16.718Z,1.33
2019-03-18T08:54:46.022Z,1.10
2019-03-18T08:57:15.797Z,1.37
2019-03-18T08:59:45.712Z,1.13
2019-03-18T09:02:15.529Z,1.53
2019-03-18T09:04:44.848Z,1.10
2019-03-18T09:07:14.667Z,1.47
2019-03-18T09:09:44.014Z,1.63
2019-03-18T09:12:13.359Z,2.93
2019-03-18T09:14:42.596Z,1.17
2019-03-18T09:17:12.434Z,1.20
2019-03-18T09:19:42.375Z,1.60
2019-03-18T09:22:11.616Z,1.60
2019-03-18T09:24:41.782Z,1.53
2019-03-18T09:27:11.047Z,1.30
2019-03-18T09:29:40.268Z,1.77
2019-03-18T09:32:09.536Z,1.53
2019-03-18T09:34:39.363Z,1.40
2019-03-18T09:37:08.646Z,1.40
2019-03-18T09:39:38.413Z,1.30
2019-03-18T09:42:17.928Z,1.10
2019-03-18T09:44:47.197Z,1.10
2019-03-18T09:47:16.650Z,0.80
2019-03-18T09:49:45.840Z,0.97
2019-03-18T09:52:15.666Z,1.40
2019-03-18T09:54:45.535Z,1.12
2019-03-18T09:57:25.362Z,1.07
2019-03-18T09:59:47.027Z,1.10
2019-03-18T10:02:16.998Z,0.80
2019-03-18T10:04:47.083Z,0.90
2019-03-18T10:07:16.943Z,1.33
2019-03-18T10:09:46.883Z,1.67
2019-03-18T10:12:16.226Z,0.90
2019-03-18T10:14:46.094Z,0.70
2019-03-18T10:17:15.526Z,1.10
2019-03-18T10:19:45.353Z,0.90
2019-03-18T10:22:14.691Z,1.00
2019-03-18T10:24:43.921Z,1.00
2019-03-18T10:27:13.225Z,1.20
2019-03-18T10:29:42.469Z,1.23
2019-03-18T10:32:11.660Z,1.27
2019-03-18T10:34:41.478Z,1.00
2019-03-18T10:37:10.748Z,0.90
2019-03-18T10:39:39.980Z,0.70
2019-03-18T10:42:09.757Z,1.03
2019-03-18T10:44:40.050Z,0.90
2019-03-18T10:47:09.374Z,1.03
2019-03-18T10:49:46.212Z,0.73
2019-03-18T10:52:10.323Z,0.87
2019-03-18T10:54:39.621Z,0.80
2019-03-18T10:57:09.413Z,0.70
2019-03-18T10:59:39.252Z,1.00
2019-03-18T11:02:09.199Z,0.70
2019-03-18T11:04:38.497Z,0.90
2019-03-18T11:07:07.689Z,1.10
2019-03-18T11:09:36.899Z,1.30
2019-03-18T11:12:06.820Z,1.00
2019-03-18T11:14:36.787Z,0.90
2019-03-18T11:17:06.189Z,0.80
2019-03-18T11:19:35.418Z,1.30
2019-03-18T11:22:05.396Z,0.83
2019-03-18T11:24:35.309Z,1.03
2019-03-18T11:27:04.590Z,0.80
2019-03-18T11:29:33.801Z,0.97
2019-03-18T11:32:03.008Z,1.20
2019-03-18T11:34:33.125Z,1.07
2019-03-18T11:37:02.645Z,1.03
2019-03-18T11:39:31.866Z,0.90
2019-03-18T11:42:01.109Z,0.90
2019-03-18T11:44:30.943Z,1.10
2019-03-18T11:47:00.874Z,0.83
2019-03-18T11:49:39.434Z,0.70
2019-03-18T11:52:01.816Z,1.10
2019-03-18T11:54:31.030Z,1.20
2019-03-18T11:57:00.406Z,0.90
2019-03-18T11:59:29.729Z,0.80
2019-03-18T12:01:59.952Z,1.00
2019-03-18T12:04:32.633Z,0.80
2019-03-18T12:07:01.532Z,0.80
2019-03-18T12:09:30.981Z,0.87
2019-03-18T12:12:00.773Z,1.17
2019-03-18T12:14:30.706Z,0.93
2019-03-18T12:17:00.649Z,1.00
2019-03-18T12:19:29.972Z,1.23
2019-03-18T12:21:59.825Z,0.90
2019-03-18T12:24:30.091Z,0.90
2019-03-18T12:26:59.462Z,1.00
2019-03-18T12:29:29.294Z,1.10
2019-03-18T12:31:58.779Z,1.27
2019-03-18T12:34:28.004Z,0.90
2019-03-18T12:36:58.166Z,1.07
2019-03-18T12:39:27.489Z,0.87
2019-03-18T12:41:57.258Z,0.60
2019-03-18T12:44:26.581Z,1.03
2019-03-18T12:46:56.391Z,1.40
2019-03-18T12:49:25.713Z,1.10
2019-03-18T12:51:55.513Z,1.00
2019-03-18T12:54:24.866Z,0.90
2019-03-18T12:56:54.694Z,1.07
2019-03-18T12:59:24.587Z,1.03
2019-03-18T13:01:54.517Z,1.00
2019-03-18T13:04:23.788Z,1.00
2019-03-18T13:06:53.870Z,0.97
2019-03-18T13:09:23.732Z,1.00
2019-03-18T13:11:53.041Z,0.80
2019-03-18T13:14:22.864Z,1.00
2019-03-18T13:16:52.714Z,0.83
2019-03-18T13:19:22.769Z,1.20
2019-03-18T13:21:52.773Z,0.83
2019-03-18T13:24:22.703Z,0.80
2019-03-18T13:26:52.016Z,1.10
2019-03-18T13:29:21.213Z,0.60
2019-03-18T13:31:51.097Z,0.90
2019-03-18T13:34:21.056Z,0.83
2019-03-18T13:36:50.978Z,1.13
2019-03-18T13:39:21.616Z,1.00
2019-03-18T13:41:50.921Z,1.40
2019-03-18T13:44:20.778Z,1.27
2019-03-18T13:46:50.642Z,1.30
2019-03-18T13:49:19.977Z,0.90
2019-03-18T13:51:49.125Z,1.50
2019-03-18T13:54:18.514Z,0.97
2019-03-18T13:56:47.722Z,1.10
2019-03-18T13:59:17.055Z,0.97
2019-03-18T14:01:46.899Z,0.90
2019-03-18T14:04:16.234Z,0.80
2019-03-18T14:06:46.080Z,0.90
2019-03-18T14:09:15.401Z,1.10
2019-03-18T14:11:44.586Z,1.00
2019-03-18T14:14:14.404Z,1.07
2019-03-18T14:16:44.245Z,0.97
2019-03-18T14:19:13.589Z,0.90
2019-03-18T14:21:42.718Z,1.20
2019-03-18T14:24:11.972Z,1.70
2019-03-18T14:26:41.808Z,1.00
2019-03-18T14:29:11.733Z,1.27
2019-03-18T14:31:43.569Z,1.00
2019-03-18T14:34:13.249Z,1.20
2019-03-18T14:36:43.162Z,1.00
2019-03-18T14:39:12.486Z,1.00
2019-03-18T14:41:43.429Z,1.30
2019-03-18T14:44:13.361Z,1.17
2019-03-18T14:46:43.629Z,1.10
2019-03-18T14:49:13.549Z,0.80
2019-03-18T14:51:46.131Z,1.60
2019-03-18T14:54:13.743Z,0.97
2019-03-18T14:56:43.555Z,1.00
2019-03-18T14:59:13.487Z,0.83
2019-03-18T15:01:42.793Z,1.17
2019-03-18T15:04:12.650Z,1.23
2019-03-18T15:06:42.627Z,1.10
2019-03-18T15:09:12.589Z,1.30
2019-03-18T15:11:42.444Z,1.00
2019-03-18T15:14:12.752Z,1.23
2019-03-18T15:16:42.654Z,1.30
2019-03-18T15:19:11.984Z,1.40
2019-03-18T15:21:41.445Z,1.10
2019-03-18T15:24:16.743Z,1.00
2019-03-18T15:26:43.091Z,1.50
2019-03-18T15:29:13.017Z,1.20
2019-03-18T15:31:42.927Z,1.50
2019-03-18T15:34:12.862Z,1.50
2019-03-18T15:36:42.201Z,1.17
2019-03-18T15:39:11.457Z,1.03
2019-03-18T15:41:40.686Z,1.47
2019-03-18T15:44:10.742Z,1.30
2019-03-18T15:46:40.604Z,1.17
2019-03-18T15:49:09.953Z,1.43
2019-03-18T15:51:40.054Z,1.23
2019-03-18T15:54:09.335Z,1.63
2019-03-18T15:56:39.445Z,1.40
2019-03-18T15:59:09.385Z,1.50
2019-03-18T16:01:39.262Z,1.37
2019-03-18T16:04:09.201Z,1.23
2019-03-18T16:06:38.539Z,1.63
2019-03-18T16:09:08.083Z,1.40
2019-03-18T16:11:38.183Z,1.63
2019-03-18T16:14:08.368Z,1.10
2019-03-18T16:16:37.604Z,1.00
2019-03-18T16:19:06.843Z,1.13
2019-03-18T16:21:36.061Z,1.07
2019-03-18T16:24:05.231Z,0.90
2019-03-18T16:26:35.219Z,1.20
2019-03-18T16:29:04.568Z,0.97
2019-03-18T16:31:33.930Z,1.50
2019-03-18T16:34:03.179Z,0.80
2019-03-18T16:36:32.408Z,1.00
2019-03-18T16:39:02.190Z,1.10
2019-03-18T16:41:32.038Z,0.97
2019-03-18T16:44:01.980Z,1.10
2019-03-18T16:46:31.981Z,0.90
2019-03-18T16:49:01.166Z,1.10
2019-03-18T16:51:31.010Z,1.40
2019-03-18T16:54:01.061Z,1.00
2019-03-18T16:56:30.508Z,0.90
2019-03-18T16:59:00.393Z,1.13
2019-03-18T17:01:30.332Z,1.30
2019-03-18T17:04:00.425Z,1.33
2019-03-18T17:06:30.410Z,1.33
2019-03-18T17:09:00.653Z,1.00
2019-03-18T17:11:30.520Z,1.27
2019-03-18T17:14:00.391Z,0.97
2019-03-18T17:16:30.441Z,0.93
2019-03-18T17:19:00.858Z,1.00
2019-03-18T17:21:30.781Z,1.13
2019-03-18T17:24:00.711Z,1.30
2019-03-18T17:26:30.071Z,1.10
2019-03-18T17:28:59.822Z,1.33
2019-03-18T17:31:29.096Z,1.10
2019-03-18T17:33:58.841Z,1.13
2019-03-18T17:36:28.398Z,1.03
2019-03-18T17:38:58.223Z,1.27
2019-03-18T17:41:28.741Z,1.30
2019-03-18T17:43:58.835Z,1.13
2019-03-18T17:46:28.773Z,1.33
2019-03-18T17:48:58.739Z,1.60
2019-03-18T17:51:28.627Z,1.27
2019-03-18T17:53:58.682Z,1.33
2019-03-18T17:56:30.425Z,1.90
2019-03-18T17:59:00.167Z,1.40
2019-03-18T18:01:29.542Z,1.30
2019-03-18T18:03:58.785Z,1.87
2019-03-18T18:06:28.564Z,1.60
2019-03-18T18:08:57.884Z,1.77
2019-03-18T18:11:27.064Z,1.70
2019-03-18T18:13:56.892Z,1.70
2019-03-18T18:16:26.831Z,1.70
2019-03-18T18:18:56.847Z,2.10
2019-03-18T18:21:26.878Z,2.10
2019-03-18T18:23:56.875Z,1.97
2019-03-18T18:26:26.834Z,1.80
2019-03-18T18:28:56.086Z,2.17
2019-03-18T18:31:25.332Z,1.80
2019-03-18T18:33:54.573Z,2.17
2019-03-18T18:36:25.359Z,1.93
2019-03-18T18:38:54.608Z,2.37
2019-03-18T18:41:23.816Z,2.53
2019-03-18T18:43:53.740Z,2.10
2019-03-18T18:46:23.075Z,1.87
2019-03-18T18:48:52.846Z,2.53
2019-03-18T18:51:22.774Z,2.20
2019-03-18T18:53:52.089Z,2.30
2019-03-18T18:56:21.897Z,2.23
2019-03-18T18:58:51.811Z,2.47
2019-03-18T19:01:21.899Z,2.33
2019-03-18T19:03:51.197Z,2.10
2019-03-18T19:06:21.401Z,2.30
2019-03-18T19:08:50.768Z,2.33
2019-03-18T19:11:20.609Z,2.47
2019-03-18T19:13:50.542Z,2.10
2019-03-18T19:16:20.493Z,2.50
2019-03-18T19:18:50.438Z,2.50
2019-03-18T19:21:19.698Z,2.50
2019-03-18T19:23:49.530Z,2.40
2019-03-18T19:26:19.482Z,3.47
2019-03-18T19:28:49.485Z,2.60
2019-03-18T19:31:18.785Z,2.30
2019-03-18T19:33:48.597Z,2.37
2019-03-18T19:36:18.515Z,2.07
2019-03-18T19:38:47.926Z,2.40
2019-03-18T19:41:17.842Z,2.47
2019-03-18T19:43:47.814Z,2.30
2019-03-18T19:46:17.707Z,2.60
2019-03-18T19:48:47.670Z,2.10
2019-03-18T19:51:17.005Z,2.60
2019-03-18T19:53:49.300Z,2.03
2019-03-18T19:56:18.616Z,2.17
2019-03-18T19:58:48.579Z,2.00
2019-03-18T20:01:18.560Z,2.93
2019-03-18T20:03:48.543Z,2.23
2019-03-18T20:06:19.129Z,2.23
2019-03-18T20:08:48.942Z,2.27
2019-03-18T20:11:18.924Z,2.33
2019-03-18T20:13:48.851Z,2.63
2019-03-18T20:16:18.206Z,2.20
2019-03-18T20:18:49.998Z,2.90
2019-03-18T20:21:18.436Z,3.03
2019-03-18T20:23:56.530Z,2.40
2019-03-18T20:26:19.877Z,2.53
2019-03-18T20:28:49.213Z,2.77
2019-03-18T20:31:25.734Z,3.00
2019-03-18T20:33:51.113Z,3.10
2019-03-18T20:36:21.089Z,2.60
2019-03-18T20:38:54.932Z,2.23
2019-03-18T20:41:24.826Z,2.23
2019-03-18T20:43:56.400Z,2.53
2019-03-18T20:46:26.408Z,3.07
2019-03-18T20:48:55.752Z,2.57
2019-03-18T20:51:25.509Z,2.63
2019-03-18T20:53:54.937Z,3.10
2019-03-18T20:56:24.597Z,2.70
2019-03-18T20:58:53.925Z,2.30
2019-03-18T21:01:23.176Z,3.17
2019-03-18T21:03:53.283Z,2.63
2019-03-18T21:06:22.652Z,2.70
2019-03-18T21:08:52.701Z,2.40
2019-03-18T21:11:22.415Z,3.05
2019-03-18T21:13:57.142Z,2.57
2019-03-18T21:16:24.267Z,2.90
2019-03-18T21:18:53.821Z,2.80
2019-03-18T21:21:23.111Z,2.70
2019-03-18T21:23:53.164Z,3.07
2019-03-18T21:26:22.809Z,2.40
2019-03-18T21:28:53.999Z,2.30
2019-03-18T21:31:24.094Z,2.57
2019-03-18T21:33:54.420Z,2.70
2019-03-18T21:36:37.189Z,2.80
2019-03-18T21:38:56.413Z,4.03
2019-03-18T21:41:27.232Z,2.70
2019-03-18T21:43:57.270Z,2.63
2019-03-18T21:46:27.214Z,2.77
2019-03-18T21:48:58.610Z,2.30
2019-03-18T21:51:28.561Z,2.40
2019-03-18T21:53:59.554Z,2.77
2019-03-18T21:56:29.732Z,3.03
2019-03-18T21:59:01.994Z,2.87
2019-03-18T22:01:31.441Z,3.10
2019-03-18T22:04:02.048Z,2.80
2019-03-18T22:06:32.517Z,2.93
2019-03-18T22:09:05.039Z,3.53
2019-03-18T22:11:34.404Z,3.00
2019-03-18T22:14:03.645Z,3.20
2019-03-18T22:16:34.062Z,3.00
2019-03-18T22:19:04.272Z,3.30
2019-03-18T22:21:33.596Z,2.93
2019-03-18T22:24:02.757Z,3.67
2019-03-18T22:26:31.980Z,3.00
2019-03-18T22:29:01.496Z,3.70
2019-03-18T22:31:30.775Z,3.23
2019-03-18T22:34:00.598Z,4.03
2019-03-18T22:36:29.861Z,3.03
2019-03-18T22:38:59.085Z,3.23
2019-03-18T22:41:30.220Z,3.60
2019-03-18T22:44:00.045Z,3.20
2019-03-18T22:46:29.417Z,3.50
2019-03-18T22:48:58.633Z,2.80
2019-03-18T22:51:28.392Z,2.90
2019-03-18T22:53:57.627Z,3.00
2019-03-18T22:56:27.576Z,3.53
2019-03-18T22:58:57.414Z,3.27
2019-03-18T23:01:28.475Z,3.30
2019-03-18T23:03:57.783Z,3.30
2019-03-18T23:06:27.554Z,3.40
2019-03-18T23:08:56.792Z,3.13
2019-03-18T23:11:26.595Z,3.13
2019-03-18T23:13:55.905Z,3.13
2019-03-18T23:16:25.181Z,3.07
2019-03-18T23:18:54.405Z,3.00
2019-03-18T23:21:24.229Z,3.80
2019-03-18T23:23:54.183Z,3.50
2019-03-18T23:26:24.137Z,3.93
2019-03-18T23:28:53.982Z,2.73
2019-03-18T23:31:23.965Z,3.23
2019-03-18T23:33:53.869Z,2.90
2019-03-18T23:36:23.728Z,3.07
2019-03-18T23:38:53.756Z,3.30
2019-03-18T23:41:23.737Z,2.70
2019-03-18T23:43:53.630Z,2.67
2019-03-18T23:46:23.501Z,3.13
2019-03-18T23:48:53.424Z,2.97
2019-03-18T23:51:23.346Z,2.87
2019-03-18T23:53:52.668Z,2.70
2019-03-18T23:56:22.569Z,2.53
2019-03-18T23:58:52.513Z,2.73
